sensor_id;sensor_type;location;lat;lon;timestamp;P1;durP1;ratioP1;P2;durP2;ratioP2
8293;SDS011;4185;41.506;24.938;2023-03-16T00:01:46;5.43;;;4.90;;
8293;SDS011;4185;41.506;24.938;2023-03-16T00:04:13;6.50;;;4.73;;
8293;SDS011;4185;41.506;24.938;2023-03-16T00:06:40;5.97;;;4.83;;
8293;SDS011;4185;41.506;24.938;2023-03-16T00:09:07;6.03;;;4.87;;
8293;SDS011;4185;41.506;24.938;2023-03-16T00:11:34;6.00;;;5.37;;
8293;SDS011;4185;41.506;24.938;2023-03-16T00:14:00;7.67;;;5.07;;
8293;SDS011;4185;41.506;24.938;2023-03-16T00:16:28;7.77;;;5.70;;
8293;SDS011;4185;41.506;24.938;2023-03-16T00:18:56;9.13;;;5.40;;
8293;SDS011;4185;41.506;24.938;2023-03-16T00:21:23;8.23;;;5.20;;
8293;SDS011;4185;41.506;24.938;2023-03-16T00:23:50;7.23;;;5.17;;
8293;SDS011;4185;41.506;24.938;2023-03-16T00:26:17;6.80;;;5.00;;
8293;SDS011;4185;41.506;24.938;2023-03-16T00:28:44;7.07;;;5.53;;
8293;SDS011;4185;41.506;24.938;2023-03-16T00:31:11;7.33;;;5.53;;
8293;SDS011;4185;41.506;24.938;2023-03-16T00:33:38;7.97;;;5.80;;
8293;SDS011;4185;41.506;24.938;2023-03-16T00:36:08;7.00;;;5.27;;
8293;SDS011;4185;41.506;24.938;2023-03-16T00:38:36;9.87;;;6.07;;
8293;SDS011;4185;41.506;24.938;2023-03-16T00:41:05;9.90;;;6.13;;
8293;SDS011;4185;41.506;24.938;2023-03-16T00:43:34;9.93;;;6.17;;
8293;SDS011;4185;41.506;24.938;2023-03-16T00:46:05;8.43;;;6.00;;
8293;SDS011;4185;41.506;24.938;2023-03-16T00:48:33;8.30;;;5.60;;
8293;SDS011;4185;41.506;24.938;2023-03-16T00:51:00;8.70;;;6.53;;
8293;SDS011;4185;41.506;24.938;2023-03-16T00:53:29;8.53;;;5.40;;
8293;SDS011;4185;41.506;24.938;2023-03-16T00:55:58;9.10;;;5.40;;
8293;SDS011;4185;41.506;24.938;2023-03-16T00:58:27;7.70;;;5.90;;
8293;SDS011;4185;41.506;24.938;2023-03-16T01:00:53;7.73;;;6.00;;
8293;SDS011;4185;41.506;24.938;2023-03-16T01:03:21;8.63;;;6.50;;
8293;SDS011;4185;41.506;24.938;2023-03-16T01:05:48;13.13;;;8.27;;
8293;SDS011;4185;41.506;24.938;2023-03-16T01:08:15;8.47;;;6.07;;
8293;SDS011;4185;41.506;24.938;2023-03-16T01:10:43;12.73;;;6.80;;
8293;SDS011;4185;41.506;24.938;2023-03-16T01:13:10;11.37;;;6.63;;
8293;SDS011;4185;41.506;24.938;2023-03-16T01:15:37;8.20;;;5.87;;
8293;SDS011;4185;41.506;24.938;2023-03-16T01:18:04;9.47;;;6.47;;
8293;SDS011;4185;41.506;24.938;2023-03-16T01:20:31;9.33;;;6.60;;
8293;SDS011;4185;41.506;24.938;2023-03-16T01:22:58;8.27;;;6.73;;
8293;SDS011;4185;41.506;24.938;2023-03-16T01:25:26;8.23;;;5.80;;
8293;SDS011;4185;41.506;24.938;2023-03-16T01:27:54;8.07;;;6.37;;
8293;SDS011;4185;41.506;24.938;2023-03-16T01:30:21;6.70;;;5.03;;
8293;SDS011;4185;41.506;24.938;2023-03-16T01:32:48;8.13;;;5.80;;
8293;SDS011;4185;41.506;24.938;2023-03-16T01:35:15;9.23;;;5.30;;
8293;SDS011;4185;41.506;24.938;2023-03-16T01:37:42;9.37;;;5.30;;
8293;SDS011;4185;41.506;24.938;2023-03-16T01:40:09;7.50;;;6.00;;
8293;SDS011;4185;41.506;24.938;2023-03-16T01:42:43;8.07;;;6.37;;
8293;SDS011;4185;41.506;24.938;2023-03-16T01:48:25;11.77;;;7.03;;
8293;SDS011;4185;41.506;24.938;2023-03-16T01:50:52;10.70;;;6.70;;
8293;SDS011;4185;41.506;24.938;2023-03-16T01:53:22;8.90;;;6.20;;
8293;SDS011;4185;41.506;24.938;2023-03-16T01:55:50;8.80;;;5.47;;
8293;SDS011;4185;41.506;24.938;2023-03-16T01:58:19;6.43;;;5.20;;
8293;SDS011;4185;41.506;24.938;2023-03-16T02:00:46;5.73;;;4.70;;
8293;SDS011;4185;41.506;24.938;2023-03-16T02:03:13;5.73;;;5.20;;
8293;SDS011;4185;41.506;24.938;2023-03-16T02:05:46;6.50;;;4.77;;
8293;SDS011;4185;41.506;24.938;2023-03-16T02:08:18;9.40;;;5.67;;
8293;SDS011;4185;41.506;24.938;2023-03-16T02:10:47;5.63;;;5.03;;
8293;SDS011;4185;41.506;24.938;2023-03-16T02:13:14;10.17;;;5.83;;
8293;SDS011;4185;41.506;24.938;2023-03-16T02:15:41;8.90;;;5.70;;
8293;SDS011;4185;41.506;24.938;2023-03-16T02:18:08;7.83;;;5.73;;
8293;SDS011;4185;41.506;24.938;2023-03-16T02:20:35;6.63;;;5.70;;
8293;SDS011;4185;41.506;24.938;2023-03-16T02:23:09;7.43;;;5.37;;
8293;SDS011;4185;41.506;24.938;2023-03-16T02:25:43;8.27;;;5.37;;
8293;SDS011;4185;41.506;24.938;2023-03-16T02:28:18;8.43;;;5.20;;
8293;SDS011;4185;41.506;24.938;2023-03-16T02:30:51;6.47;;;4.83;;
8293;SDS011;4185;41.506;24.938;2023-03-16T02:33:19;6.17;;;4.50;;
8293;SDS011;4185;41.506;24.938;2023-03-16T02:35:46;5.80;;;4.57;;
8293;SDS011;4185;41.506;24.938;2023-03-16T02:38:13;6.93;;;5.10;;
8293;SDS011;4185;41.506;24.938;2023-03-16T02:40:40;7.67;;;5.27;;
8293;SDS011;4185;41.506;24.938;2023-03-16T02:43:08;4.50;;;3.80;;
8293;SDS011;4185;41.506;24.938;2023-03-16T02:45:39;7.03;;;4.47;;
8293;SDS011;4185;41.506;24.938;2023-03-16T02:48:11;5.47;;;4.40;;
8293;SDS011;4185;41.506;24.938;2023-03-16T02:50:43;6.47;;;5.40;;
8293;SDS011;4185;41.506;24.938;2023-03-16T02:53:12;5.83;;;5.23;;
8293;SDS011;4185;41.506;24.938;2023-03-16T02:55:39;9.33;;;6.50;;
8293;SDS011;4185;41.506;24.938;2023-03-16T02:58:05;9.83;;;7.17;;
8293;SDS011;4185;41.506;24.938;2023-03-16T03:00:32;10.30;;;7.17;;
8293;SDS011;4185;41.506;24.938;2023-03-16T03:02:59;10.27;;;7.80;;
8293;SDS011;4185;41.506;24.938;2023-03-16T03:05:27;8.93;;;6.50;;
8293;SDS011;4185;41.506;24.938;2023-03-16T03:07:54;8.13;;;6.17;;
8293;SDS011;4185;41.506;24.938;2023-03-16T03:10:21;8.33;;;6.27;;
8293;SDS011;4185;41.506;24.938;2023-03-16T03:12:47;9.70;;;6.30;;
8293;SDS011;4185;41.506;24.938;2023-03-16T03:15:14;9.10;;;6.20;;
8293;SDS011;4185;41.506;24.938;2023-03-16T03:17:42;9.03;;;6.60;;
8293;SDS011;4185;41.506;24.938;2023-03-16T03:20:10;8.23;;;5.67;;
8293;SDS011;4185;41.506;24.938;2023-03-16T03:22:43;11.70;;;7.07;;
8293;SDS011;4185;41.506;24.938;2023-03-16T03:25:10;9.23;;;6.63;;
8293;SDS011;4185;41.506;24.938;2023-03-16T03:27:38;14.30;;;7.57;;
8293;SDS011;4185;41.506;24.938;2023-03-16T03:30:05;9.33;;;6.00;;
8293;SDS011;4185;41.506;24.938;2023-03-16T03:32:32;8.80;;;6.83;;
8293;SDS011;4185;41.506;24.938;2023-03-16T03:34:59;8.40;;;6.40;;
8293;SDS011;4185;41.506;24.938;2023-03-16T03:37:26;8.77;;;6.83;;
8293;SDS011;4185;41.506;24.938;2023-03-16T03:39:55;14.00;;;7.40;;
8293;SDS011;4185;41.506;24.938;2023-03-16T03:42:22;8.00;;;5.77;;
8293;SDS011;4185;41.506;24.938;2023-03-16T03:44:49;8.43;;;6.60;;
8293;SDS011;4185;41.506;24.938;2023-03-16T03:47:16;11.33;;;7.50;;
8293;SDS011;4185;41.506;24.938;2023-03-16T03:49:43;9.17;;;6.63;;
8293;SDS011;4185;41.506;24.938;2023-03-16T03:52:10;13.57;;;8.53;;
8293;SDS011;4185;41.506;24.938;2023-03-16T03:54:37;14.83;;;7.87;;
8293;SDS011;4185;41.506;24.938;2023-03-16T03:57:05;11.93;;;8.07;;
8293;SDS011;4185;41.506;24.938;2023-03-16T03:59:32;13.13;;;8.40;;
8293;SDS011;4185;41.506;24.938;2023-03-16T04:01:59;13.13;;;8.23;;
8293;SDS011;4185;41.506;24.938;2023-03-16T04:04:26;13.73;;;8.83;;
8293;SDS011;4185;41.506;24.938;2023-03-16T04:06:52;15.20;;;8.47;;
8293;SDS011;4185;41.506;24.938;2023-03-16T04:09:19;13.27;;;8.47;;
8293;SDS011;4185;41.506;24.938;2023-03-16T04:11:46;13.40;;;8.40;;
8293;SDS011;4185;41.506;24.938;2023-03-16T04:14:14;14.80;;;7.80;;
8293;SDS011;4185;41.506;24.938;2023-03-16T04:16:41;14.60;;;9.03;;
8293;SDS011;4185;41.506;24.938;2023-03-16T04:19:08;14.97;;;8.80;;
8293;SDS011;4185;41.506;24.938;2023-03-16T04:21:35;15.70;;;8.57;;
8293;SDS011;4185;41.506;24.938;2023-03-16T04:24:02;16.50;;;8.77;;
8293;SDS011;4185;41.506;24.938;2023-03-16T04:26:29;12.57;;;8.97;;
8293;SDS011;4185;41.506;24.938;2023-03-16T04:28:56;14.37;;;8.63;;
8293;SDS011;4185;41.506;24.938;2023-03-16T04:31:24;14.73;;;9.07;;
8293;SDS011;4185;41.506;24.938;2023-03-16T04:33:51;14.00;;;9.40;;
8293;SDS011;4185;41.506;24.938;2023-03-16T04:36:18;23.43;;;11.53;;
8293;SDS011;4185;41.506;24.938;2023-03-16T04:38:48;16.43;;;10.97;;
8293;SDS011;4185;41.506;24.938;2023-03-16T04:41:15;19.20;;;10.80;;
8293;SDS011;4185;41.506;24.938;2023-03-16T04:43:43;16.23;;;11.23;;
8293;SDS011;4185;41.506;24.938;2023-03-16T04:46:10;17.77;;;10.13;;
8293;SDS011;4185;41.506;24.938;2023-03-16T04:48:38;11.90;;;8.50;;
8293;SDS011;4185;41.506;24.938;2023-03-16T04:51:05;11.97;;;7.50;;
8293;SDS011;4185;41.506;24.938;2023-03-16T04:53:32;10.90;;;7.90;;
8293;SDS011;4185;41.506;24.938;2023-03-16T04:55:59;13.07;;;9.27;;
8293;SDS011;4185;41.506;24.938;2023-03-16T04:58:26;16.67;;;12.37;;
8293;SDS011;4185;41.506;24.938;2023-03-16T05:00:53;16.43;;;10.60;;
8293;SDS011;4185;41.506;24.938;2023-03-16T05:03:20;18.07;;;10.63;;
8293;SDS011;4185;41.506;24.938;2023-03-16T05:05:48;13.13;;;9.40;;
8293;SDS011;4185;41.506;24.938;2023-03-16T05:08:16;15.87;;;10.07;;
8293;SDS011;4185;41.506;24.938;2023-03-16T05:10:42;14.20;;;9.83;;
8293;SDS011;4185;41.506;24.938;2023-03-16T05:13:12;17.03;;;11.73;;
8293;SDS011;4185;41.506;24.938;2023-03-16T05:15:38;17.67;;;11.23;;
8293;SDS011;4185;41.506;24.938;2023-03-16T05:18:05;18.20;;;13.17;;
8293;SDS011;4185;41.506;24.938;2023-03-16T05:20:32;20.37;;;14.13;;
8293;SDS011;4185;41.506;24.938;2023-03-16T05:23:00;22.97;;;15.23;;
8293;SDS011;4185;41.506;24.938;2023-03-16T05:25:27;18.40;;;12.40;;
8293;SDS011;4185;41.506;24.938;2023-03-16T05:27:53;13.83;;;9.40;;
8293;SDS011;4185;41.506;24.938;2023-03-16T05:30:21;11.87;;;9.33;;
8293;SDS011;4185;41.506;24.938;2023-03-16T05:32:47;15.27;;;10.70;;
8293;SDS011;4185;41.506;24.938;2023-03-16T05:35:15;14.17;;;9.60;;
8293;SDS011;4185;41.506;24.938;2023-03-16T05:37:42;13.07;;;10.43;;
8293;SDS011;4185;41.506;24.938;2023-03-16T05:40:11;13.60;;;8.53;;
8293;SDS011;4185;41.506;24.938;2023-03-16T05:42:41;12.97;;;7.87;;
8293;SDS011;4185;41.506;24.938;2023-03-16T05:45:09;16.30;;;10.50;;
8293;SDS011;4185;41.506;24.938;2023-03-16T05:47:37;16.83;;;11.30;;
8293;SDS011;4185;41.506;24.938;2023-03-16T05:50:04;18.23;;;11.00;;
8293;SDS011;4185;41.506;24.938;2023-03-16T05:52:33;8.07;;;6.87;;
8293;SDS011;4185;41.506;24.938;2023-03-16T05:55:00;28.70;;;12.90;;
8293;SDS011;4185;41.506;24.938;2023-03-16T05:57:28;26.80;;;15.40;;
8293;SDS011;4185;41.506;24.938;2023-03-16T05:59:55;20.97;;;12.47;;
8293;SDS011;4185;41.506;24.938;2023-03-16T06:02:22;17.57;;;11.37;;
8293;SDS011;4185;41.506;24.938;2023-03-16T06:04:50;14.53;;;9.27;;
8293;SDS011;4185;41.506;24.938;2023-03-16T06:07:17;13.57;;;9.83;;
8293;SDS011;4185;41.506;24.938;2023-03-16T06:09:44;18.27;;;9.93;;
8293;SDS011;4185;41.506;24.938;2023-03-16T06:12:11;11.87;;;8.50;;
8293;SDS011;4185;41.506;24.938;2023-03-16T06:14:39;15.83;;;11.17;;
8293;SDS011;4185;41.506;24.938;2023-03-16T06:17:06;47.67;;;28.93;;
8293;SDS011;4185;41.506;24.938;2023-03-16T06:19:33;11.40;;;7.90;;
8293;SDS011;4185;41.506;24.938;2023-03-16T06:22:00;9.30;;;6.80;;
8293;SDS011;4185;41.506;24.938;2023-03-16T06:24:27;12.10;;;9.13;;
8293;SDS011;4185;41.506;24.938;2023-03-16T06:26:53;14.90;;;9.73;;
8293;SDS011;4185;41.506;24.938;2023-03-16T06:29:20;12.50;;;8.33;;
8293;SDS011;4185;41.506;24.938;2023-03-16T06:31:48;16.53;;;11.33;;
8293;SDS011;4185;41.506;24.938;2023-03-16T06:34:16;18.67;;;11.70;;
8293;SDS011;4185;41.506;24.938;2023-03-16T06:36:43;22.27;;;12.73;;
8293;SDS011;4185;41.506;24.938;2023-03-16T06:39:10;17.00;;;10.60;;
8293;SDS011;4185;41.506;24.938;2023-03-16T06:41:38;9.33;;;7.33;;
8293;SDS011;4185;41.506;24.938;2023-03-16T06:44:08;16.60;;;10.03;;
8293;SDS011;4185;41.506;24.938;2023-03-16T06:46:35;11.10;;;8.07;;
8293;SDS011;4185;41.506;24.938;2023-03-16T06:49:04;12.57;;;8.37;;
8293;SDS011;4185;41.506;24.938;2023-03-16T06:51:31;16.33;;;9.93;;
8293;SDS011;4185;41.506;24.938;2023-03-16T06:53:58;17.53;;;12.87;;
8293;SDS011;4185;41.506;24.938;2023-03-16T06:56:25;19.87;;;14.03;;
8293;SDS011;4185;41.506;24.938;2023-03-16T06:58:52;20.57;;;14.80;;
8293;SDS011;4185;41.506;24.938;2023-03-16T07:01:19;26.80;;;21.03;;
8293;SDS011;4185;41.506;24.938;2023-03-16T07:03:46;22.23;;;14.57;;
8293;SDS011;4185;41.506;24.938;2023-03-16T07:06:15;16.07;;;11.63;;
8293;SDS011;4185;41.506;24.938;2023-03-16T07:08:42;14.00;;;9.20;;
8293;SDS011;4185;41.506;24.938;2023-03-16T07:11:09;17.10;;;13.77;;
8293;SDS011;4185;41.506;24.938;2023-03-16T07:13:36;18.17;;;11.63;;
8293;SDS011;4185;41.506;24.938;2023-03-16T07:16:03;15.23;;;11.27;;
8293;SDS011;4185;41.506;24.938;2023-03-16T07:18:30;15.33;;;10.43;;
8293;SDS011;4185;41.506;24.938;2023-03-16T07:20:57;11.67;;;6.37;;
8293;SDS011;4185;41.506;24.938;2023-03-16T07:23:26;11.60;;;7.87;;
8293;SDS011;4185;41.506;24.938;2023-03-16T07:25:53;13.40;;;11.23;;
8293;SDS011;4185;41.506;24.938;2023-03-16T07:28:20;19.93;;;16.00;;
8293;SDS011;4185;41.506;24.938;2023-03-16T07:30:47;17.50;;;15.23;;
8293;SDS011;4185;41.506;24.938;2023-03-16T07:33:14;11.77;;;7.50;;
8293;SDS011;4185;41.506;24.938;2023-03-16T07:35:41;9.37;;;7.60;;
8293;SDS011;4185;41.506;24.938;2023-03-16T07:38:08;11.40;;;8.67;;
8293;SDS011;4185;41.506;24.938;2023-03-16T07:40:37;13.37;;;8.03;;
8293;SDS011;4185;41.506;24.938;2023-03-16T07:43:04;12.43;;;8.43;;
8293;SDS011;4185;41.506;24.938;2023-03-16T07:45:31;14.17;;;9.57;;
8293;SDS011;4185;41.506;24.938;2023-03-16T07:47:58;13.87;;;10.10;;
8293;SDS011;4185;41.506;24.938;2023-03-16T07:50:25;12.70;;;9.93;;
8293;SDS011;4185;41.506;24.938;2023-03-16T07:52:52;14.37;;;9.47;;
8293;SDS011;4185;41.506;24.938;2023-03-16T07:55:19;18.93;;;12.77;;
8293;SDS011;4185;41.506;24.938;2023-03-16T07:57:47;16.93;;;12.20;;
8293;SDS011;4185;41.506;24.938;2023-03-16T08:00:14;17.93;;;12.40;;
8293;SDS011;4185;41.506;24.938;2023-03-16T08:02:44;16.30;;;11.77;;
8293;SDS011;4185;41.506;24.938;2023-03-16T08:05:11;20.53;;;12.47;;
8293;SDS011;4185;41.506;24.938;2023-03-16T08:07:39;16.40;;;11.17;;
8293;SDS011;4185;41.506;24.938;2023-03-16T08:10:06;17.77;;;11.63;;
8293;SDS011;4185;41.506;24.938;2023-03-16T08:12:34;19.23;;;11.80;;
8293;SDS011;4185;41.506;24.938;2023-03-16T08:15:04;21.80;;;12.70;;
8293;SDS011;4185;41.506;24.938;2023-03-16T08:17:32;22.80;;;13.97;;
8293;SDS011;4185;41.506;24.938;2023-03-16T08:19:58;19.30;;;13.60;;
8293;SDS011;4185;41.506;24.938;2023-03-16T08:22:25;19.30;;;13.33;;
8293;SDS011;4185;41.506;24.938;2023-03-16T08:24:52;15.10;;;9.73;;
8293;SDS011;4185;41.506;24.938;2023-03-16T08:27:19;13.80;;;10.20;;
8293;SDS011;4185;41.506;24.938;2023-03-16T08:29:46;15.33;;;9.93;;
8293;SDS011;4185;41.506;24.938;2023-03-16T08:32:18;11.03;;;8.30;;
8293;SDS011;4185;41.506;24.938;2023-03-16T08:34:45;12.20;;;8.53;;
8293;SDS011;4185;41.506;24.938;2023-03-16T08:37:12;9.37;;;7.73;;
8293;SDS011;4185;41.506;24.938;2023-03-16T08:39:40;12.93;;;8.47;;
8293;SDS011;4185;41.506;24.938;2023-03-16T08:42:08;14.30;;;8.30;;
8293;SDS011;4185;41.506;24.938;2023-03-16T08:44:35;15.10;;;9.90;;
8293;SDS011;4185;41.506;24.938;2023-03-16T08:47:02;13.40;;;9.13;;
8293;SDS011;4185;41.506;24.938;2023-03-16T08:49:31;15.53;;;9.47;;
8293;SDS011;4185;41.506;24.938;2023-03-16T08:51:58;12.83;;;8.87;;
8293;SDS011;4185;41.506;24.938;2023-03-16T08:54:25;12.83;;;8.90;;
8293;SDS011;4185;41.506;24.938;2023-03-16T08:56:52;13.77;;;8.70;;
8293;SDS011;4185;41.506;24.938;2023-03-16T08:59:19;12.20;;;9.73;;
8293;SDS011;4185;41.506;24.938;2023-03-16T09:01:46;10.77;;;7.93;;
8293;SDS011;4185;41.506;24.938;2023-03-16T09:04:13;9.20;;;6.83;;
8293;SDS011;4185;41.506;24.938;2023-03-16T09:06:41;11.47;;;7.83;;
8293;SDS011;4185;41.506;24.938;2023-03-16T09:09:08;7.97;;;6.97;;
8293;SDS011;4185;41.506;24.938;2023-03-16T09:11:35;10.50;;;6.80;;
8293;SDS011;4185;41.506;24.938;2023-03-16T09:14:01;11.13;;;8.10;;
8293;SDS011;4185;41.506;24.938;2023-03-16T09:16:28;11.67;;;7.83;;
8293;SDS011;4185;41.506;24.938;2023-03-16T09:18:56;8.97;;;6.73;;
8293;SDS011;4185;41.506;24.938;2023-03-16T09:21:22;10.57;;;7.20;;
8293;SDS011;4185;41.506;24.938;2023-03-16T09:23:51;12.20;;;7.57;;
8293;SDS011;4185;41.506;24.938;2023-03-16T09:26:18;9.47;;;6.87;;
8293;SDS011;4185;41.506;24.938;2023-03-16T09:28:45;12.13;;;7.57;;
8293;SDS011;4185;41.506;24.938;2023-03-16T09:31:15;8.20;;;7.10;;
8293;SDS011;4185;41.506;24.938;2023-03-16T09:33:43;8.23;;;6.87;;
8293;SDS011;4185;41.506;24.938;2023-03-16T09:36:10;10.17;;;7.00;;
8293;SDS011;4185;41.506;24.938;2023-03-16T09:38:37;11.77;;;7.67;;
8293;SDS011;4185;41.506;24.938;2023-03-16T09:41:08;10.83;;;7.50;;
8293;SDS011;4185;41.506;24.938;2023-03-16T09:43:39;11.07;;;7.37;;
8293;SDS011;4185;41.506;24.938;2023-03-16T09:46:14;11.80;;;8.60;;
8293;SDS011;4185;41.506;24.938;2023-03-16T09:48:49;13.57;;;8.57;;
8293;SDS011;4185;41.506;24.938;2023-03-16T09:51:17;11.03;;;7.50;;
8293;SDS011;4185;41.506;24.938;2023-03-16T09:53:49;11.70;;;8.03;;
8293;SDS011;4185;41.506;24.938;2023-03-16T09:56:26;10.43;;;8.03;;
8293;SDS011;4185;41.506;24.938;2023-03-16T09:58:59;12.23;;;7.90;;
8293;SDS011;4185;41.506;24.938;2023-03-16T10:01:31;9.57;;;7.07;;
8293;SDS011;4185;41.506;24.938;2023-03-16T10:04:08;10.83;;;7.50;;
8293;SDS011;4185;41.506;24.938;2023-03-16T10:06:45;9.93;;;7.90;;
8293;SDS011;4185;41.506;24.938;2023-03-16T10:09:22;8.57;;;7.00;;
8293;SDS011;4185;41.506;24.938;2023-03-16T10:11:58;9.17;;;6.53;;
8293;SDS011;4185;41.506;24.938;2023-03-16T10:14:29;9.07;;;6.23;;
8293;SDS011;4185;41.506;24.938;2023-03-16T10:17:03;10.77;;;7.17;;
8293;SDS011;4185;41.506;24.938;2023-03-16T10:19:36;9.03;;;6.47;;
8293;SDS011;4185;41.506;24.938;2023-03-16T10:22:10;11.30;;;7.90;;
8293;SDS011;4185;41.506;24.938;2023-03-16T10:24:46;16.30;;;8.83;;
8293;SDS011;4185;41.506;24.938;2023-03-16T10:27:23;13.00;;;7.53;;
8293;SDS011;4185;41.506;24.938;2023-03-16T10:29:54;15.07;;;8.97;;
8293;SDS011;4185;41.506;24.938;2023-03-16T10:32:21;19.00;;;9.77;;
8293;SDS011;4185;41.506;24.938;2023-03-16T10:34:55;9.70;;;6.47;;
8293;SDS011;4185;41.506;24.938;2023-03-16T10:37:25;18.03;;;9.57;;
8293;SDS011;4185;41.506;24.938;2023-03-16T10:39:56;8.93;;;6.10;;
8293;SDS011;4185;41.506;24.938;2023-03-16T10:42:26;15.07;;;8.37;;
8293;SDS011;4185;41.506;24.938;2023-03-16T10:44:56;10.67;;;6.93;;
8293;SDS011;4185;41.506;24.938;2023-03-16T10:47:26;9.13;;;6.07;;
8293;SDS011;4185;41.506;24.938;2023-03-16T10:49:55;10.20;;;6.60;;
8293;SDS011;4185;41.506;24.938;2023-03-16T10:52:23;12.83;;;8.03;;
8293;SDS011;4185;41.506;24.938;2023-03-16T10:54:59;10.20;;;7.30;;
8293;SDS011;4185;41.506;24.938;2023-03-16T10:57:31;7.40;;;6.00;;
8293;SDS011;4185;41.506;24.938;2023-03-16T11:00:02;7.50;;;5.80;;
8293;SDS011;4185;41.506;24.938;2023-03-16T11:02:40;8.47;;;6.33;;
8293;SDS011;4185;41.506;24.938;2023-03-16T11:05:11;6.43;;;5.37;;
8293;SDS011;4185;41.506;24.938;2023-03-16T11:07:46;6.30;;;5.47;;
8293;SDS011;4185;41.506;24.938;2023-03-16T11:10:22;6.47;;;5.40;;
8293;SDS011;4185;41.506;24.938;2023-03-16T11:12:59;5.70;;;4.97;;
8293;SDS011;4185;41.506;24.938;2023-03-16T11:15:27;8.30;;;6.00;;
8293;SDS011;4185;41.506;24.938;2023-03-16T11:18:02;9.67;;;6.80;;
8293;SDS011;4185;41.506;24.938;2023-03-16T11:20:29;10.83;;;6.93;;
8293;SDS011;4185;41.506;24.938;2023-03-16T11:22:58;7.27;;;5.20;;
8293;SDS011;4185;41.506;24.938;2023-03-16T11:25:27;7.37;;;5.37;;
8293;SDS011;4185;41.506;24.938;2023-03-16T11:28:02;6.67;;;5.23;;
8293;SDS011;4185;41.506;24.938;2023-03-16T11:30:38;6.10;;;4.97;;
8293;SDS011;4185;41.506;24.938;2023-03-16T11:33:10;7.13;;;5.43;;
8293;SDS011;4185;41.506;24.938;2023-03-16T11:35:42;10.67;;;6.10;;
8293;SDS011;4185;41.506;24.938;2023-03-16T11:38:17;7.97;;;5.57;;
8293;SDS011;4185;41.506;24.938;2023-03-16T11:40:49;9.90;;;6.07;;
8293;SDS011;4185;41.506;24.938;2023-03-16T11:43:39;14.80;;;7.60;;
8293;SDS011;4185;41.506;24.938;2023-03-16T11:46:17;24.13;;;12.63;;
8293;SDS011;4185;41.506;24.938;2023-03-16T11:48:52;17.33;;;9.40;;
8293;SDS011;4185;41.506;24.938;2023-03-16T11:51:37;11.53;;;7.23;;
8293;SDS011;4185;41.506;24.938;2023-03-16T11:54:16;14.90;;;10.53;;
8293;SDS011;4185;41.506;24.938;2023-03-16T11:56:58;6.53;;;4.80;;
8293;SDS011;4185;41.506;24.938;2023-03-16T11:59:36;9.03;;;6.40;;
8293;SDS011;4185;41.506;24.938;2023-03-16T12:02:31;4.50;;;3.80;;
8293;SDS011;4185;41.506;24.938;2023-03-16T12:05:19;6.83;;;5.30;;
8293;SDS011;4185;41.506;24.938;2023-03-16T12:07:57;8.07;;;5.87;;
8293;SDS011;4185;41.506;24.938;2023-03-16T12:10:36;6.93;;;5.43;;
8293;SDS011;4185;41.506;24.938;2023-03-16T12:13:11;4.13;;;3.73;;
8293;SDS011;4185;41.506;24.938;2023-03-16T12:15:56;5.93;;;4.03;;
8293;SDS011;4185;41.506;24.938;2023-03-16T12:18:29;4.97;;;3.83;;
8293;SDS011;4185;41.506;24.938;2023-03-16T12:21:06;6.37;;;5.33;;
8293;SDS011;4185;41.506;24.938;2023-03-16T12:23:39;7.00;;;4.70;;
8293;SDS011;4185;41.506;24.938;2023-03-16T12:26:23;6.63;;;4.47;;
8293;SDS011;4185;41.506;24.938;2023-03-16T12:28:54;6.07;;;4.60;;
8293;SDS011;4185;41.506;24.938;2023-03-16T12:31:26;6.50;;;5.00;;
8293;SDS011;4185;41.506;24.938;2023-03-16T12:34:01;6.10;;;5.30;;
8293;SDS011;4185;41.506;24.938;2023-03-16T12:39:50;7.17;;;4.33;;
8293;SDS011;4185;41.506;24.938;2023-03-16T12:45:28;9.33;;;6.50;;
8293;SDS011;4185;41.506;24.938;2023-03-16T12:48:06;8.83;;;5.70;;
8293;SDS011;4185;41.506;24.938;2023-03-16T12:50:49;6.10;;;4.93;;
8293;SDS011;4185;41.506;24.938;2023-03-16T12:53:25;5.97;;;4.63;;
8293;SDS011;4185;41.506;24.938;2023-03-16T12:56:06;7.83;;;5.33;;
8293;SDS011;4185;41.506;24.938;2023-03-16T12:58:38;8.07;;;5.37;;
8293;SDS011;4185;41.506;24.938;2023-03-16T13:01:09;6.80;;;4.83;;
8293;SDS011;4185;41.506;24.938;2023-03-16T13:03:39;12.27;;;6.37;;
8293;SDS011;4185;41.506;24.938;2023-03-16T13:06:06;7.37;;;5.07;;
8293;SDS011;4185;41.506;24.938;2023-03-16T13:08:47;9.30;;;5.43;;
8293;SDS011;4185;41.506;24.938;2023-03-16T13:11:17;11.87;;;6.47;;
8293;SDS011;4185;41.506;24.938;2023-03-16T13:13:48;7.67;;;5.73;;
8293;SDS011;4185;41.506;24.938;2023-03-16T13:16:24;12.77;;;7.00;;
8293;SDS011;4185;41.506;24.938;2023-03-16T13:18:54;6.10;;;4.23;;
8293;SDS011;4185;41.506;24.938;2023-03-16T13:21:22;21.07;;;9.57;;
8293;SDS011;4185;41.506;24.938;2023-03-16T13:24:11;8.57;;;5.13;;
8293;SDS011;4185;41.506;24.938;2023-03-16T13:26:47;8.27;;;5.47;;
8293;SDS011;4185;41.506;24.938;2023-03-16T13:29:21;9.00;;;6.27;;
8293;SDS011;4185;41.506;24.938;2023-03-16T13:31:51;4.87;;;3.73;;
8293;SDS011;4185;41.506;24.938;2023-03-16T13:34:22;9.30;;;6.90;;
8293;SDS011;4185;41.506;24.938;2023-03-16T13:36:52;9.97;;;7.10;;
8293;SDS011;4185;41.506;24.938;2023-03-16T13:39:22;9.33;;;6.30;;
8293;SDS011;4185;41.506;24.938;2023-03-16T13:41:58;5.00;;;4.27;;
8293;SDS011;4185;41.506;24.938;2023-03-16T13:44:28;33.97;;;15.53;;
8293;SDS011;4185;41.506;24.938;2023-03-16T13:46:55;3.40;;;3.10;;
8293;SDS011;4185;41.506;24.938;2023-03-16T13:49:23;21.80;;;12.67;;
8293;SDS011;4185;41.506;24.938;2023-03-16T13:51:50;8.90;;;6.87;;
8293;SDS011;4185;41.506;24.938;2023-03-16T13:54:19;9.97;;;7.97;;
8293;SDS011;4185;41.506;24.938;2023-03-16T13:56:49;5.23;;;3.83;;
8293;SDS011;4185;41.506;24.938;2023-03-16T13:59:16;6.70;;;5.17;;
8293;SDS011;4185;41.506;24.938;2023-03-16T14:01:44;13.23;;;7.30;;
8293;SDS011;4185;41.506;24.938;2023-03-16T14:04:12;3.33;;;3.03;;
8293;SDS011;4185;41.506;24.938;2023-03-16T14:06:51;6.40;;;4.70;;
8293;SDS011;4185;41.506;24.938;2023-03-16T14:09:20;4.97;;;3.63;;
8293;SDS011;4185;41.506;24.938;2023-03-16T14:11:51;13.57;;;9.50;;
8293;SDS011;4185;41.506;24.938;2023-03-16T14:14:22;14.63;;;9.43;;
8293;SDS011;4185;41.506;24.938;2023-03-16T14:16:50;12.60;;;8.47;;
8293;SDS011;4185;41.506;24.938;2023-03-16T14:19:19;6.17;;;4.70;;
8293;SDS011;4185;41.506;24.938;2023-03-16T14:21:48;4.97;;;4.37;;
8293;SDS011;4185;41.506;24.938;2023-03-16T14:24:21;5.90;;;4.90;;
8293;SDS011;4185;41.506;24.938;2023-03-16T14:26:56;4.97;;;4.30;;
8293;SDS011;4185;41.506;24.938;2023-03-16T14:29:25;6.40;;;4.87;;
8293;SDS011;4185;41.506;24.938;2023-03-16T14:31:54;9.10;;;6.13;;
8293;SDS011;4185;41.506;24.938;2023-03-16T14:34:26;7.03;;;5.07;;
8293;SDS011;4185;41.506;24.938;2023-03-16T14:37:03;9.93;;;5.77;;
8293;SDS011;4185;41.506;24.938;2023-03-16T14:39:33;13.00;;;7.93;;
8293;SDS011;4185;41.506;24.938;2023-03-16T14:42:01;9.97;;;7.20;;
8293;SDS011;4185;41.506;24.938;2023-03-16T14:44:30;10.00;;;6.17;;
8293;SDS011;4185;41.506;24.938;2023-03-16T14:47:00;5.73;;;4.87;;
8293;SDS011;4185;41.506;24.938;2023-03-16T14:49:30;19.03;;;9.87;;
8293;SDS011;4185;41.506;24.938;2023-03-16T14:51:59;10.57;;;6.67;;
8293;SDS011;4185;41.506;24.938;2023-03-16T14:54:29;7.20;;;5.17;;
8293;SDS011;4185;41.506;24.938;2023-03-16T14:56:59;5.33;;;4.10;;
8293;SDS011;4185;41.506;24.938;2023-03-16T14:59:29;7.90;;;5.93;;
8293;SDS011;4185;41.506;24.938;2023-03-16T15:01:56;9.43;;;6.47;;
8293;SDS011;4185;41.506;24.938;2023-03-16T15:04:24;8.47;;;5.73;;
8293;SDS011;4185;41.506;24.938;2023-03-16T15:06:53;5.17;;;3.80;;
8293;SDS011;4185;41.506;24.938;2023-03-16T15:09:26;8.60;;;5.77;;
8293;SDS011;4185;41.506;24.938;2023-03-16T15:12:00;8.13;;;5.43;;
8293;SDS011;4185;41.506;24.938;2023-03-16T15:14:27;4.20;;;3.70;;
8293;SDS011;4185;41.506;24.938;2023-03-16T15:17:11;9.30;;;5.97;;